Time;durP1;ratioP1;P1;durP2;ratioP2;P2;SDS_P1;SDS_P2;PMS_P1;PMS_P2;Temp;Humidity;BMP_temperature;BMP_pressure;BME280_temperature;BME280_humidity;BME280_pressure;Samples;Min_cycle;Max_cycle;Signal;HPM_P1;HPM_P2
2021/09/08 00:01:20;;;;;;;;;15.75;13.25;;;;;22.35;41.36;100679.50;5076993;27;46962;-61
2021/09/08 00:03:45;;;;;;;;;13.25;12.00;;;;;22.35;41.30;100682.19;5076791;27;45364;-61
2021/09/08 00:06:11;;;;;;;;;13.25;13.00;;;;;22.31;41.62;100677.09;5076774;27;45281;-61
2021/09/08 00:08:36;;;;;;;;;14.75;13.00;;;;;22.31;41.77;100678.94;5076592;27;45340;-65
2021/09/08 00:11:02;;;;;;;;;15.00;13.00;;;;;22.27;41.80;100675.69;5076850;27;46194;-61
2021/09/08 00:13:29;;;;;;;;;11.50;10.50;;;;;22.26;41.74;100673.97;5076399;28;45406;-61
2021/09/08 00:15:55;;;;;;;;;14.75;13.25;;;;;22.23;41.87;100670.72;5075055;27;45313;-61
2021/09/08 00:18:21;;;;;;;;;15.75;14.25;;;;;22.20;41.95;100666.47;5076690;27;45327;-60
2021/09/08 00:20:46;;;;;;;;;14.00;13.50;;;;;22.18;42.30;100668.44;5076085;27;47409;-62
2021/09/08 00:23:11;;;;;;;;;13.25;13.25;;;;;22.11;42.07;100654.75;5076300;27;45287;-61
2021/09/08 00:25:37;;;;;;;;;11.25;11.25;;;;;22.10;41.91;100660.22;5076407;27;45288;-62
2021/09/08 00:28:02;;;;;;;;;13.00;12.50;;;;;22.10;42.06;100661.09;5076911;27;45177;-59
2021/09/08 00:30:27;;;;;;;;;19.00;14.75;;;;;22.07;42.18;100652.47;5076116;28;45569;-60
2021/09/08 00:32:53;;;;;;;;;15.00;13.25;;;;;22.04;42.47;100649.06;5076149;27;45429;-60
2021/09/08 00:35:18;;;;;;;;;14.50;12.50;;;;;21.99;42.34;100643.28;5074641;28;45346;-60
2021/09/08 00:37:44;;;;;;;;;12.25;12.25;;;;;21.97;42.55;100639.06;5076206;27;45531;-61
2021/09/08 00:40:10;;;;;;;;;14.00;13.00;;;;;21.96;42.58;100632.84;5075880;27;45841;-59
2021/09/08 00:42:36;;;;;;;;;16.50;13.25;;;;;21.93;42.43;100634.94;5075801;28;45313;-62
2021/09/08 00:45:03;;;;;;;;;11.25;11.25;;;;;21.87;42.58;100633.63;5076489;27;45283;-62
2021/09/08 00:47:29;;;;;;;;;11.50;11.50;;;;;21.86;43.16;100623.91;5076117;27;45235;-61
2021/09/08 00:49:54;;;;;;;;;15.00;13.75;;;;;21.84;42.67;100625.88;5075751;27;46270;-60
2021/09/08 00:52:21;;;;;;;;;13.75;12.00;;;;;21.81;42.38;100627.00;5075820;27;45329;-60
2021/09/08 00:54:47;;;;;;;;;12.50;12.00;;;;;21.79;42.75;100631.66;5075918;27;45350;-60
2021/09/08 00:57:14;;;;;;;;;12.50;12.50;;;;;21.72;42.70;100615.25;5075988;27;45393;-61
2021/09/08 00:59:42;;;;;;;;;14.50;13.75;;;;;21.72;43.11;100620.63;5074667;28;46198;-60
2021/09/08 01:02:07;;;;;;;;;12.75;12.75;;;;;21.71;43.35;100628.75;5075605;28;45465;-61
2021/09/08 01:04:32;;;;;;;;;14.00;11.75;;;;;21.70;43.27;100619.91;5074656;28;45318;-61
2021/09/08 01:07:03;;;;;;;;;13.00;13.00;;;;;21.68;43.07;100629.03;5075838;27;45234;-60
2021/09/08 01:09:29;;;;;;;;;13.50;12.25;;;;;21.62;43.66;100622.38;5074068;28;48551;-62
2021/09/08 01:11:55;;;;;;;;;12.75;12.00;;;;;21.60;43.90;100616.28;5074384;28;45474;-61
2021/09/08 01:14:21;;;;;;;;;14.00;12.25;;;;;21.59;43.67;100625.31;5075797;27;45368;-61
2021/09/08 01:16:54;;;;;;;;;15.50;11.75;;;;;21.58;43.33;100620.94;5075561;27;45485;-62
2021/09/08 01:19:20;;;;;;;;;17.50;17.25;;;;;21.55;44.00;100616.69;5075194;28;45327;-60
2021/09/08 01:21:46;;;;;;;;;11.25;11.00;;;;;21.50;44.13;100613.56;5075246;27;45323;-61
2021/09/08 01:24:11;;;;;;;;;15.00;12.00;;;;;21.46;43.96;100612.13;5074037;28;45472;-61
2021/09/08 01:26:42;;;;;;;;;17.00;14.00;;;;;21.46;44.05;100614.81;5075872;27;45579;-62
2021/09/08 01:29:08;;;;;;;;;11.50;11.25;;;;;21.46;44.10;100614.81;5075611;28;45575;-61
2021/09/08 01:31:35;;;;;;;;;14.00;12.50;;;;;21.38;44.68;100601.22;5075394;27;45259;-61
2021/09/08 01:34:00;;;;;;;;;12.75;12.00;;;;;21.25;44.59;100591.59;5074964;27;45282;-61
2021/09/08 01:36:26;;;;;;;;;15.25;13.50;;;;;21.34;44.87;100607.84;5075230;27;45535;-61
2021/09/08 01:38:51;;;;;;;;;15.25;13.75;;;;;21.32;44.81;100605.31;5074986;28;46606;-61
2021/09/08 01:41:17;;;;;;;;;16.00;14.00;;;;;21.28;44.72;100601.19;5075197;27;45369;-59
2021/09/08 01:43:46;;;;;;;;;14.75;14.00;;;;;21.28;45.03;100595.84;5075561;27;45296;-60
2021/09/08 01:46:22;;;;;;;;;14.25;13.75;;;;;21.23;45.21;100592.72;5075437;27;45626;-60
2021/09/08 01:48:48;;;;;;;;;12.00;11.50;;;;;21.23;45.05;100598.91;5074970;27;45662;-60
2021/09/08 01:51:14;;;;;;;;;14.75;13.00;;;;;21.19;45.67;100586.75;5073500;28;45433;-62
2021/09/08 01:53:40;;;;;;;;;14.00;12.50;;;;;21.18;45.42;100590.41;5075109;28;45498;-60
2021/09/08 01:56:06;;;;;;;;;14.25;12.25;;;;;21.13;45.39;100588.13;5075411;28;45576;-59
2021/09/08 01:58:32;;;;;;;;;15.75;15.00;;;;;21.13;45.42;100584.63;5074788;27;45352;-60
2021/09/08 02:00:58;;;;;;;;;14.25;14.00;;;;;21.11;45.54;100582.06;5074753;27;45259;-61
2021/09/08 02:03:23;;;;;;;;;13.75;13.50;;;;;21.09;46.03;100584.00;5074855;28;45418;-62
2021/09/08 02:05:49;;;;;;;;;16.00;13.25;;;;;21.08;45.84;100578.81;5075031;27;45262;-62
2021/09/08 02:08:14;;;;;;;;;18.75;14.75;;;;;21.06;46.04;100576.25;5074629;27;45341;-61
2021/09/08 02:10:39;;;;;;;;;15.00;14.00;;;;;21.02;46.19;100577.50;5074638;27;45207;-60
2021/09/08 02:13:06;;;;;;;;;15.75;15.00;;;;;21.00;45.94;100571.44;5074948;27;45283;-61
2021/09/08 02:15:31;;;;;;;;;16.75;14.25;;;;;20.95;46.41;100566.47;5074600;27;45597;-61
2021/09/08 02:17:57;;;;;;;;;13.75;13.75;;;;;20.96;46.52;100570.00;5074285;28;46090;-61
2021/09/08 02:20:22;;;;;;;;;15.00;15.00;;;;;20.94;46.40;100569.28;5074566;27;45324;-60
2021/09/08 02:22:48;;;;;;;;;17.00;15.00;;;;;20.92;46.73;100560.53;5074854;28;45417;-61
2021/09/08 02:25:13;;;;;;;;;17.25;15.50;;;;;20.89;46.85;100548.28;5074990;27;45418;-61
2021/09/08 02:27:39;;;;;;;;;15.00;14.00;;;;;20.85;47.16;100546.84;5074884;27;46096;-61
2021/09/08 02:30:05;;;;;;;;;17.00;14.25;;;;;20.84;47.20;100554.00;5074632;27;45426;-61
2021/09/08 02:32:31;;;;;;;;;14.50;12.25;;;;;20.80;47.20;100543.72;5074824;28;45405;-63
2021/09/08 02:34:57;;;;;;;;;14.75;13.00;;;;;20.81;47.69;100548.91;5074532;27;45429;-61
2021/09/08 02:37:22;;;;;;;;;13.75;13.75;;;;;20.79;47.49;100547.38;5073037;28;46769;-61
2021/09/08 02:39:48;;;;;;;;;15.50;12.75;;;;;20.77;47.75;100538.59;5074350;27;45417;-60
2021/09/08 02:42:15;;;;;;;;;17.50;14.75;;;;;20.78;47.26;100534.94;5074314;27;45345;-61
2021/09/08 02:44:42;;;;;;;;;14.75;13.50;;;;;20.71;47.87;100521.25;5075054;27;45400;-61
2021/09/08 02:47:07;;;;;;;;;18.50;14.25;;;;;20.75;47.63;100529.88;5072702;27;47598;-61
2021/09/08 02:49:33;;;;;;;;;12.50;10.75;;;;;20.71;47.50;100523.91;5073986;27;45346;-61
2021/09/08 02:51:58;;;;;;;;;17.25;14.00;;;;;20.71;47.64;100531.94;5074306;27;45872;-61
2021/09/08 02:54:23;;;;;;;;;17.00;15.00;;;;;20.69;48.18;100525.88;5074479;27;45520;-61
2021/09/08 02:56:49;;;;;;;;;13.75;13.25;;;;;20.65;48.31;100517.25;5074199;27;45402;-61
2021/09/08 02:59:14;;;;;;;;;14.00;14.00;;;;;20.64;48.72;100520.06;5074142;27;45275;-60
2021/09/08 03:01:39;;;;;;;;;13.00;13.00;;;;;20.62;48.62;100520.19;5074538;27;45636;-61
2021/09/08 03:04:05;;;;;;;;;13.75;13.75;;;;;20.60;48.41;100514.13;5074476;27;45349;-61
2021/09/08 03:06:30;;;;;;;;;15.75;15.75;;;;;20.58;48.92;100516.06;5073977;27;46207;-62
2021/09/08 03:08:57;;;;;;;;;15.50;13.50;;;;;20.58;48.47;100508.91;5074440;27;45389;-61
2021/09/08 03:11:23;;;;;;;;;15.00;13.75;;;;;20.56;48.79;100504.66;5074555;27;45380;-61
2021/09/08 03:13:48;;;;;;;;;16.00;16.00;;;;;20.56;48.97;100508.19;5074395;27;45558;-61
2021/09/08 03:16:16;;;;;;;;;18.00;17.25;;;;;20.55;48.97;100503.81;5073857;27;45516;-60
2021/09/08 03:18:41;;;;;;;;;17.50;15.50;;;;;20.51;49.07;100493.50;5073083;28;45895;-60
2021/09/08 03:21:07;;;;;;;;;15.00;13.25;;;;;20.50;49.43;100495.34;5074049;28;45398;-60
2021/09/08 03:23:33;;;;;;;;;16.75;15.00;;;;;20.47;49.22;100500.97;5075775;27;45541;-62
2021/09/08 03:25:58;;;;;;;;;14.75;13.25;;;;;20.47;49.53;100500.97;5077310;27;45890;-61
2021/09/08 03:28:24;;;;;;;;;20.50;16.25;;;;;20.43;49.61;100494.19;5077134;27;45370;-60
2021/09/08 03:30:49;;;;;;;;;20.25;17.00;;;;;20.42;49.48;100493.31;5077395;28;45472;-59
2021/09/08 03:33:15;;;;;;;;;14.50;12.25;;;;;20.40;49.35;100491.75;5093150;27;45411;-61
2021/09/08 03:35:40;;;;;;;;;14.75;14.25;;;;;20.37;49.54;100489.34;5076024;28;47187;-61
2021/09/08 03:38:05;;;;;;;;;16.25;15.75;;;;;20.37;49.78;100487.50;5075591;28;45424;-60
2021/09/08 03:40:31;;;;;;;;;16.25;16.25;;;;;20.35;49.92;100489.47;5075642;28;45368;-61
2021/09/08 03:42:56;;;;;;;;;19.25;15.50;;;;;20.33;49.88;100483.41;5077300;27;45338;-61
2021/09/08 03:45:22;;;;;;;;;20.00;17.25;;;;;20.33;49.85;100480.72;5076613;27;45522;-60
2021/09/08 03:47:47;;;;;;;;;16.25;15.50;;;;;20.32;50.03;100486.22;5076902;28;45417;-60
2021/09/08 03:50:13;;;;;;;;;17.50;14.25;;;;;20.29;49.98;100476.63;5077541;27;45727;-61
2021/09/08 03:52:39;;;;;;;;;17.50;14.25;;;;;20.25;50.54;100468.03;5077328;27;45230;-61
2021/09/08 03:55:06;;;;;;;;;18.25;16.75;;;;;20.26;50.34;100466.19;5075582;28;46986;-61
2021/09/08 03:57:31;;;;;;;;;16.75;15.50;;;;;20.23;50.31;100451.28;5075388;27;45331;-61
2021/09/08 03:59:57;;;;;;;;;10.25;10.25;;;;;20.19;50.46;100454.31;5076850;27;45381;-60
2021/09/08 04:02:22;;;;;;;;;17.00;15.25;;;;;20.15;51.11;100445.72;5077081;27;45516;-60
2021/09/08 04:04:47;;;;;;;;;9.00;6.00;;;;;20.12;50.46;100444.16;5076600;27;45428;-60
2021/09/08 04:07:13;;;;;;;;;17.25;15.25;;;;;20.10;51.11;100443.44;5076963;28;45355;-61
2021/09/08 04:09:38;;;;;;;;;17.75;16.75;;;;;20.09;50.78;100438.19;5076751;27;45736;-61
2021/09/08 04:12:04;;;;;;;;;17.00;14.00;;;;;20.09;50.76;100436.41;5076852;27;45358;-64
2021/09/08 04:14:31;;;;;;;;;18.50;17.50;;;;;20.09;51.15;100443.53;5076426;28;45433;-61
2021/09/08 04:16:56;;;;;;;;;15.25;15.25;;;;;20.05;51.30;100434.09;5076455;27;46027;-62
2021/09/08 04:19:21;;;;;;;;;20.00;18.25;;;;;20.05;50.77;100440.28;5076692;27;45893;-62
2021/09/08 04:21:47;;;;;;;;;26.00;22.50;;;;;20.04;51.12;100448.41;5076949;27;45533;-62
2021/09/08 04:24:12;;;;;;;;;20.25;18.75;;;;;20.02;51.05;100443.22;5076502;28;46219;-61
2021/09/08 04:26:38;;;;;;;;;24.50;23.00;;;;;20.02;50.87;100447.69;5076243;27;45357;-61
2021/09/08 04:29:03;;;;;;;;;26.25;22.50;;;;;19.98;51.04;100445.28;5074782;27;45393;-61
2021/09/08 04:31:29;;;;;;;;;27.25;22.25;;;;;19.96;51.26;100439.22;5076440;27;45314;-61
2021/09/08 04:33:54;;;;;;;;;25.00;18.75;;;;;19.95;51.78;100437.53;5075873;27;46749;-61
2021/09/08 04:36:19;;;;;;;;;22.50;21.25;;;;;19.93;51.36;100438.63;5075993;27;45355;-61
2021/09/08 04:38:45;;;;;;;;;20.50;19.50;;;;;19.90;51.65;100421.03;5076592;27;45247;-61
2021/09/08 04:41:13;;;;;;;;;25.25;23.00;;;;;19.91;52.01;100429.91;5076378;28;45329;-61
2021/09/08 04:43:40;;;;;;;;;19.75;16.75;;;;;19.85;52.19;100420.53;5075977;27;45552;-61
2021/09/08 04:46:05;;;;;;;;;20.50;18.50;;;;;19.84;51.76;100433.06;5075927;27;45578;-61
2021/09/08 04:48:31;;;;;;;;;19.75;18.25;;;;;19.82;52.15;100439.47;5076182;27;45468;-62
2021/09/08 04:50:56;;;;;;;;;19.75;17.00;;;;;19.80;52.15;100436.94;5075069;28;45388;-61
2021/09/08 04:53:22;;;;;;;;;13.75;11.50;;;;;19.78;51.79;100438.03;5074457;28;48337;-60
2021/09/08 04:55:47;;;;;;;;;17.25;15.75;;;;;19.77;52.39;100439.00;5074747;27;45401;-61
2021/09/08 04:58:14;;;;;;;;;22.50;19.00;;;;;19.76;52.05;100439.97;5076031;27;46002;-63
2021/09/08 05:00:39;;;;;;;;;20.75;17.75;;;;;19.74;52.21;100436.59;5076198;27;45690;-62
2021/09/08 05:03:04;;;;;;;;;20.75;19.50;;;;;19.70;52.00;100436.84;5075663;27;46298;-62
2021/09/08 05:05:30;;;;;;;;;19.75;18.00;;;;;19.68;53.02;100432.63;5075664;27;45247;-62
2021/09/08 05:07:55;;;;;;;;;22.25;17.00;;;;;19.65;52.75;100430.19;5074636;28;45252;-61
2021/09/08 05:10:20;;;;;;;;;20.75;17.25;;;;;19.63;52.70;100422.28;5076256;27;45573;-61
2021/09/08 05:12:46;;;;;;;;;18.00;18.00;;;;;19.63;52.53;100432.13;5076006;27;45894;-61
2021/09/08 05:15:12;;;;;;;;;18.00;16.75;;;;;19.61;52.88;100426.91;5075681;27;45379;-61
2021/09/08 05:17:37;;;;;;;;;24.00;23.50;;;;;19.59;53.31;100428.84;5075899;28;45203;-62
2021/09/08 05:20:06;;;;;;;;;17.50;16.50;;;;;19.58;52.79;100431.63;5076243;27;45464;-61
2021/09/08 05:22:32;;;;;;;;;21.00;18.25;;;;;19.58;52.95;100432.50;5075532;27;46339;-60
2021/09/08 05:24:57;;;;;;;;;20.25;20.00;;;;;19.56;53.04;100437.09;5075607;27;45417;-61
2021/09/08 05:27:23;;;;;;;;;15.75;15.50;;;;;19.58;53.06;100437.84;5075661;27;45294;-60
2021/09/08 05:29:48;;;;;;;;;17.00;14.50;;;;;19.56;52.99;100437.09;5076224;27;45559;-61
2021/09/08 05:32:14;;;;;;;;;24.75;22.00;;;;;19.54;53.39;100420.38;5075328;27;45646;-61
2021/09/08 05:34:39;;;;;;;;;19.50;18.50;;;;;19.57;52.90;100425.47;5091117;27;45278;-62
2021/09/08 05:37:04;;;;;;;;;21.00;21.00;;;;;19.60;53.07;100427.03;5075356;27;45213;-62
2021/09/08 05:39:30;;;;;;;;;21.25;19.75;;;;;19.56;53.16;100421.94;5075287;27;45694;-61
2021/09/08 05:41:55;;;;;;;;;27.50;21.50;;;;;19.56;53.75;100421.09;5075175;27;46337;-62
2021/09/08 05:44:20;;;;;;;;;20.75;19.00;;;;;19.61;53.40;100428.72;5075473;27;45236;-61
2021/09/08 05:46:46;;;;;;;;;34.75;29.50;;;;;19.58;53.67;100424.50;5075020;28;45469;-62
2021/09/08 05:49:12;;;;;;;;;25.00;22.75;;;;;19.62;53.74;100425.94;5075483;27;45277;-61
2021/09/08 05:51:39;;;;;;;;;22.75;19.00;;;;;19.61;53.38;100426.91;5075502;27;46994;-61
2021/09/08 05:54:06;;;;;;;;;23.50;22.00;;;;;19.66;53.64;100431.88;5075345;27;45398;-62
2021/09/08 05:56:32;;;;;;;;;25.50;22.25;;;;;19.69;53.37;100436.97;5075023;27;45314;-61
2021/09/08 05:58:57;;;;;;;;;22.75;19.00;;;;;19.74;53.63;100441.91;5075073;28;45424;-63
2021/09/08 06:01:22;;;;;;;;;21.25;19.50;;;;;19.76;53.50;100442.66;5073160;28;47197;-65
2021/09/08 06:03:48;;;;;;;;;22.25;20.25;;;;;19.76;53.13;100431.97;5075325;27;45426;-61
2021/09/08 06:06:13;;;;;;;;;22.25;20.50;;;;;19.80;53.79;100434.28;5074944;27;45331;-63
2021/09/08 06:08:38;;;;;;;;;29.25;22.50;;;;;19.82;53.22;100431.47;5075371;27;45607;-63
2021/09/08 06:11:04;;;;;;;;;25.50;20.50;;;;;19.79;53.57;100423.72;5073567;27;45492;-61
2021/09/08 06:13:29;;;;;;;;;24.75;19.00;;;;;19.87;53.34;100434.59;5074938;27;45191;-62
2021/09/08 06:15:55;;;;;;;;;24.25;22.25;;;;;19.88;53.32;100425.63;5074877;27;45279;-61
2021/09/08 06:18:20;;;;;;;;;25.75;22.00;;;;;19.89;53.36;100423.81;5075368;27;45282;-61
2021/09/08 06:20:45;;;;;;;;;21.00;19.25;;;;;19.92;52.87;100421.75;5088439;27;47091;-62
2021/09/08 06:23:11;;;;;;;;;24.25;23.00;;;;;19.94;53.41;100417.13;5073316;27;45490;-61
2021/09/08 06:25:38;;;;;;;;;21.75;20.50;;;;;19.98;53.08;100415.09;5074976;27;45277;-61
2021/09/08 06:28:03;;;;;;;;;22.50;19.25;;;;;20.02;53.28;100415.66;5073776;28;45644;-62
2021/09/08 06:30:28;;;;;;;;;19.25;18.50;;;;;20.02;53.22;100413.00;5074333;28;45401;-63
2021/09/08 06:32:54;;;;;;;;;24.25;20.50;;;;;20.06;53.23;100412.63;5074515;27;45333;-63
2021/09/08 06:35:19;;;;;;;;;21.75;17.75;;;;;20.08;53.03;100416.00;5074535;27;45772;-61
2021/09/08 06:37:44;;;;;;;;;29.50;24.50;;;;;20.11;52.67;100410.41;5074392;27;45354;-63
2021/09/08 06:40:11;;;;;;;;;24.25;22.25;;;;;20.15;53.26;100416.38;5074247;27;45986;-61
2021/09/08 06:42:36;;;;;;;;;23.75;21.50;;;;;20.19;53.20;100409.78;5074142;27;45351;-61
2021/09/08 06:45:03;;;;;;;;;22.75;19.25;;;;;20.22;52.78;100412.19;5072873;28;45407;-61
2021/09/08 06:47:29;;;;;;;;;22.75;22.00;;;;;20.25;53.09;100405.72;5072377;27;45518;-62
2021/09/08 06:49:54;;;;;;;;;28.25;26.25;;;;;20.31;53.42;100415.06;5074249;27;45662;-61
2021/09/08 06:52:20;;;;;;;;;32.75;26.25;;;;;20.33;52.98;100413.94;5074905;27;45238;-63
2021/09/08 06:54:46;;;;;;;;;24.25;22.25;;;;;20.34;52.82;100418.31;5074472;27;45242;-63
2021/09/08 06:57:12;;;;;;;;;21.75;21.50;;;;;20.37;53.00;100414.56;5074593;27;45357;-63
2021/09/08 06:59:39;;;;;;;;;37.00;27.25;;;;;20.41;52.52;100405.31;5077166;28;45278;-61
2021/09/08 07:02:05;;;;;;;;;28.75;23.50;;;;;20.47;52.73;100402.09;5077993;27;45423;-60
2021/09/08 07:04:32;;;;;;;;;32.75;28.00;;;;;20.52;52.85;100397.22;5076373;27;45450;-66
2021/09/08 07:06:58;;;;;;;;;25.00;24.75;;;;;20.60;52.62;100409.06;5078115;27;45460;-61
2021/09/08 07:09:23;;;;;;;;;20.50;19.00;;;;;20.63;52.48;100409.63;5078273;27;46064;-61
2021/09/08 07:11:49;;;;;;;;;23.50;20.25;;;;;20.67;52.07;100410.25;5077810;27;45285;-62
2021/09/08 07:14:14;;;;;;;;;26.25;24.25;;;;;20.63;52.43;100395.44;5078546;27;45216;-63
2021/09/08 07:16:39;;;;;;;;;25.75;21.50;;;;;20.73;52.40;100404.38;5077963;27;45542;-61
2021/09/08 07:19:05;;;;;;;;;30.75;24.50;;;;;20.78;52.37;100402.16;5076606;28;47508;-61
2021/09/08 07:21:30;;;;;;;;;24.25;21.25;;;;;20.83;52.38;100393.78;5076510;28;45309;-62
2021/09/08 07:23:56;;;;;;;;;27.75;22.00;;;;;20.92;52.23;100394.78;5077909;27;45200;-63
2021/09/08 07:26:21;;;;;;;;;14.50;14.50;;;;;20.95;51.79;100387.34;5078050;27;45680;-62
2021/09/08 07:28:46;;;;;;;;;23.25;20.25;;;;;21.05;52.30;100391.88;5077326;27;45688;-62
2021/09/08 07:31:12;;;;;;;;;25.75;22.25;;;;;21.14;52.06;100394.59;5077304;27;45287;-62
2021/09/08 07:33:38;;;;;;;;;24.25;23.50;;;;;21.22;51.69;100390.41;5077705;27;45235;-62
2021/09/08 07:36:03;;;;;;;;;27.25;23.75;;;;;21.33;51.25;100392.97;5076061;28;45458;-62
2021/09/08 07:38:29;;;;;;;;;23.50;22.00;;;;;21.41;51.41;100381.56;5077311;28;46520;-62
2021/09/08 07:40:55;;;;;;;;;20.75;18.25;;;;;21.54;51.48;100382.16;5077218;27;45789;-61
2021/09/08 07:43:21;;;;;;;;;37.25;27.00;;;;;21.64;51.27;100376.88;5077502;27;45459;-62
2021/09/08 07:45:47;;;;;;;;;26.00;23.75;;;;;21.66;51.14;100366.88;5077545;27;45386;-62
2021/09/08 07:48:13;;;;;;;;;19.25;17.75;;;;;21.88;50.66;100375.63;5077685;27;46476;-62
2021/09/08 07:50:38;;;;;;;;;21.25;19.00;;;;;21.98;50.57;100380.97;5077509;27;45364;-61
2021/09/08 07:53:04;;;;;;;;;24.00;22.00;;;;;22.06;50.53;100382.94;5093320;27;45457;-62
2021/09/08 07:55:30;;;;;;;;;20.75;16.25;;;;;22.14;50.40;100378.56;5078220;27;45285;-62
2021/09/08 07:57:55;;;;;;;;;22.00;20.00;;;;;22.21;50.37;100375.31;5076062;28;45324;-63
2021/09/08 08:00:21;;;;;;;;;30.50;26.00;;;;;22.27;50.22;100372.06;5077064;28;45261;-62
2021/09/08 08:02:49;;;;;;;;;24.50;19.00;;;;;22.30;50.03;100372.66;5077114;27;45272;-61
2021/09/08 08:05:15;;;;;;;;;22.75;22.75;;;;;22.43;49.58;100377.69;5076999;28;45456;-61
2021/09/08 08:07:41;;;;;;;;;22.75;19.25;;;;;22.52;50.01;100375.16;5076674;27;46036;-65
2021/09/08 08:10:08;;;;;;;;;30.00;21.00;;;;;22.63;49.67;100376.84;5076505;27;45337;-62
2021/09/08 08:12:33;;;;;;;;;21.50;19.50;;;;;22.68;49.39;100380.75;5076863;27;45539;-63
2021/09/08 08:14:59;;;;;;;;;22.75;19.50;;;;;22.80;49.37;100384.13;5076860;27;45210;-63
2021/09/08 08:17:24;;;;;;;;;17.25;16.75;;;;;22.89;49.16;100383.22;5077355;27;45349;-63
2021/09/08 08:19:50;;;;;;;;;24.00;21.00;;;;;22.95;48.99;100375.59;5077778;27;45252;-63
2021/09/08 08:22:16;;;;;;;;;21.00;20.00;;;;;23.07;48.79;100390.50;5076984;27;45278;-61
2021/09/08 08:24:41;;;;;;;;;21.50;20.50;;;;;23.15;48.57;100385.22;5077040;27;45361;-62
2021/09/08 08:27:07;;;;;;;;;34.75;31.25;;;;;23.25;48.67;100379.84;5075180;28;47087;-62
2021/09/08 08:29:33;;;;;;;;;33.75;27.50;;;;;23.33;48.60;100379.13;5075168;27;45180;-62
2021/09/08 08:31:59;;;;;;;;;25.00;20.25;;;;;23.42;48.64;100380.03;5076958;27;45337;-62
2021/09/08 08:34:24;;;;;;;;;27.50;24.25;;;;;23.51;48.44;100375.63;5077525;27;45559;-62
2021/09/08 08:36:50;;;;;;;;;23.50;20.75;;;;;23.62;48.41;100372.72;5076939;27;46449;-62
2021/09/08 08:39:16;;;;;;;;;21.50;20.00;;;;;23.65;47.87;100361.66;5076808;27;45558;-62
2021/09/08 08:41:42;;;;;;;;;32.50;29.00;;;;;23.71;47.41;100363.75;5076559;27;45325;-63
2021/09/08 08:44:09;;;;;;;;;25.25;24.25;;;;;23.77;47.65;100371.19;5076453;27;45452;-63
2021/09/08 08:46:35;;;;;;;;;21.00;21.00;;;;;23.85;48.09;100366.88;5074190;28;48428;-61
2021/09/08 08:49:01;;;;;;;;;22.25;21.00;;;;;23.96;47.31;100363.97;5075546;28;45343;-62
2021/09/08 08:51:27;;;;;;;;;25.75;22.00;;;;;23.99;47.16;100358.28;5074627;28;45306;-63
2021/09/08 08:53:52;;;;;;;;;24.75;22.75;;;;;24.15;47.69;100365.66;5076212;27;45329;-61
2021/09/08 08:56:18;;;;;;;;;22.75;22.25;;;;;24.29;47.82;100360.72;5075878;27;46879;-61
2021/09/08 08:58:43;;;;;;;;;30.00;25.25;;;;;24.42;47.49;100353.09;5076216;28;45215;-62
2021/09/08 09:01:24;;;;;;;;;24.75;23.75;;;;;24.52;46.99;100358.38;5076224;27;45384;-59
2021/09/08 09:04:01;;;;;;;;;23.00;20.25;;;;;24.56;46.88;100354.34;5076225;27;45406;-63
2021/09/08 09:06:27;;;;;;;;;23.50;21.50;;;;;24.58;46.76;100335.38;5076173;28;45655;-62
2021/09/08 09:09:19;;;;;;;;;17.75;17.75;;;;;24.68;46.48;100341.47;5075798;28;45381;-62
2021/09/08 09:11:48;;;;;;;;;19.50;16.00;;;;;24.69;46.61;100332.41;5074253;27;45366;-63
2021/09/08 09:14:15;;;;;;;;;20.25;20.25;;;;;24.72;46.76;100334.75;5075570;27;45346;-62
2021/09/08 09:16:42;;;;;;;;;25.75;22.00;;;;;24.82;46.42;100344.59;5075257;28;46606;-63
2021/09/08 09:19:09;;;;;;;;;19.50;18.50;;;;;24.90;46.02;100339.25;5075243;27;45449;-63
2021/09/08 09:21:38;;;;;;;;;24.00;21.75;;;;;25.02;46.34;100337.13;5090385;27;45328;-62
2021/09/08 09:24:05;;;;;;;;;19.75;19.00;;;;;25.14;46.03;100327.72;5091792;27;45410;-61
2021/09/08 09:26:37;;;;;;;;;22.50;21.25;;;;;25.25;46.12;100331.97;5075607;27;48522;-62
2021/09/08 09:29:07;;;;;;;;;19.25;18.75;;;;;25.35;45.77;100321.91;5075136;27;45425;-61
2021/09/08 09:31:33;;;;;;;;;21.25;18.75;;;;;25.37;45.64;100319.03;5090823;27;45369;-62
2021/09/08 09:33:59;;;;;;;;;28.00;24.50;;;;;25.43;45.46;100318.38;5075730;27;45258;-62
2021/09/08 09:36:30;;;;;;;;;19.00;19.00;;;;;25.57;45.45;100324.19;5074719;27;46278;-63
2021/09/08 09:38:56;;;;;;;;;21.50;20.00;;;;;25.67;45.53;100323.00;5075146;27;45394;-62
2021/09/08 09:41:27;;;;;;;;;30.00;23.50;;;;;25.74;44.88;100320.50;5075216;28;45477;-63
2021/09/08 09:43:52;;;;;;;;;25.25;23.25;;;;;25.70;45.03;100319.13;5075315;28;45219;-62
2021/09/08 09:46:19;;;;;;;;;29.25;22.25;;;;;25.71;45.11;100319.97;5075133;27;46329;-64
2021/09/08 09:48:45;;;;;;;;;19.75;19.00;;;;;25.76;45.28;100318.47;5074996;27;45413;-61
2021/09/08 09:51:13;;;;;;;;;49.25;40.00;;;;;25.85;45.45;100321.97;5075080;28;45409;-62
2021/09/08 09:53:39;;;;;;;;;27.75;23.75;;;;;25.98;45.30;100316.09;5075650;27;45434;-62
2021/09/08 09:56:05;;;;;;;;;20.00;18.25;;;;;26.02;44.75;100317.44;5074743;27;45341;-62
2021/09/08 09:58:31;;;;;;;;;20.50;18.00;;;;;26.05;44.70;100314.41;5075084;27;45329;-61
2021/09/08 10:00:57;;;;;;;;;22.75;21.75;;;;;26.17;44.77;100322.16;5075015;27;45243;-61
2021/09/08 10:03:23;;;;;;;;;23.25;23.25;;;;;26.32;44.44;100314.25;5075016;27;45247;-62
2021/09/08 10:05:48;;;;;;;;;21.75;20.75;;;;;26.42;44.09;100305.94;5073206;27;46112;-62
2021/09/08 10:08:22;;;;;;;;;23.25;23.00;;;;;26.59;44.10;100310.31;5074473;27;45384;-64
2021/09/08 10:10:51;;;;;;;;;22.75;22.00;;;;;26.72;44.12;100308.91;5075073;27;45263;-64
2021/09/08 10:13:30;;;;;;;;;24.75;21.00;;;;;26.87;43.93;100317.13;5074548;27;45606;-62
2021/09/08 10:15:55;;;;;;;;;23.75;21.00;;;;;27.01;43.71;100326.34;5074756;27;45410;-62
2021/09/08 10:18:26;;;;;;;;;18.00;18.00;;;;;27.11;43.79;100318.88;5074541;27;45315;-61
2021/09/08 10:20:58;;;;;;;;;21.00;18.75;;;;;27.22;42.98;100320.34;5073293;27;45376;-61
2021/09/08 10:23:24;;;;;;;;;27.50;25.25;;;;;27.33;42.88;100308.28;5073246;28;45385;-61
2021/09/08 10:25:49;;;;;;;;;21.00;19.25;;;;;27.48;42.69;100314.59;5074658;27;46310;-61
2021/09/08 10:28:18;;;;;;;;;26.50;21.75;;;;;27.59;42.72;100312.53;5074792;27;45505;-62
2021/09/08 10:30:45;;;;;;;;;21.50;19.75;;;;;27.53;42.44;100295.19;5074636;27;45500;-64
2021/09/08 10:33:12;;;;;;;;;36.50;31.75;;;;;27.65;42.70;100311.81;5077491;28;45243;-62
2021/09/08 10:35:39;;;;;;;;;36.75;32.75;;;;;27.72;42.67;100310.06;5077723;27;45389;-62
2021/09/08 10:38:17;;;;;;;;;26.00;25.25;;;;;27.76;42.69;100297.03;5078095;27;45456;-61
2021/09/08 10:40:45;;;;;;;;;34.75;30.75;;;;;27.95;41.82;100288.41;5077768;27;45419;-63
2021/09/08 10:43:11;;;;;;;;;16.00;16.00;;;;;28.08;42.29;100293.19;5078161;27;45314;-62
2021/09/08 10:45:49;;;;;;;;;18.00;18.00;;;;;28.18;41.56;100290.25;5077781;27;45670;-62
2021/09/08 10:48:36;;;;;;;;;32.50;29.25;;;;;28.26;41.97;100289.31;5077435;27;45416;-63
2021/09/08 10:51:02;;;;;;;;;25.00;23.25;;;;;28.34;41.21;100296.50;5078263;28;45426;-65
2021/09/08 10:53:29;;;;;;;;;21.50;20.75;;;;;28.46;41.47;100292.31;5078217;27;45357;-62
2021/09/08 10:55:55;;;;;;;;;33.50;29.25;;;;;28.60;41.59;100290.63;5077814;27;46558;-62
2021/09/08 10:58:21;;;;;;;;;25.75;21.25;;;;;28.68;41.23;100289.69;5077778;27;45348;-62
2021/09/08 11:00:49;;;;;;;;;16.75;15.75;;;;;28.72;40.32;100285.56;5078031;27;45355;-62
2021/09/08 11:03:15;;;;;;;;;28.00;27.50;;;;;28.77;40.92;100283.19;5077744;27;45535;-62
2021/09/08 11:05:55;;;;;;;;;24.00;22.25;;;;;28.67;40.35;100278.03;5077424;28;46576;-62